sensor_id;sensor_type;location;lat;lon;timestamp;pressure;altitude;pressure_sealevel;temperature;humidity
36600;BME280;35385;55.668;37.508;2022-11-21T00:00:19;-251823.41;;;48.80;0.00
36600;BME280;35385;55.668;37.508;2022-11-21T00:01:24;-250496.94;;;49.00;100.00
36600;BME280;35385;55.668;37.508;2022-11-21T00:02:25;-248437.13;;;49.32;84.34
36600;BME280;35385;55.668;37.508;2022-11-21T00:03:26;-251590.13;;;48.83;0.00
36600;BME280;35385;55.668;37.508;2022-11-21T00:04:26;-251356.22;;;48.86;0.00
36600;BME280;35385;55.668;37.508;2022-11-21T00:05:28;-251506.78;;;48.85;0.00
36600;BME280;35385;55.668;37.508;2022-11-21T00:06:29;-251365.53;;;48.86;0.00
36600;BME280;35385;55.668;37.508;2022-11-21T00:07:29;-250974.88;;;48.92;0.00
36600;BME280;35385;55.668;37.508;2022-11-21T00:08:30;-249182.25;;;49.20;100.00
36600;BME280;35385;55.668;37.508;2022-11-21T00:09:30;-251290.25;;;48.87;0.00
36600;BME280;35385;55.668;37.508;2022-11-21T00:10:33;-251412.84;;;48.86;0.00
36600;BME280;35385;55.668;37.508;2022-11-21T00:11:35;-251290.25;;;48.87;0.00
36600;BME280;35385;55.668;37.508;2022-11-21T00:12:35;-251123.31;;;48.90;0.00
36600;BME280;35385;55.668;37.508;2022-11-21T00:13:36;-251403.47;;;48.86;0.00
36600;BME280;35385;55.668;37.508;2022-11-21T00:14:36;-249267.69;;;49.18;100.00
36600;BME280;35385;55.668;37.508;2022-11-21T00:15:37;-250957.72;;;48.92;0.00
36600;BME280;35385;55.668;37.508;2022-11-21T00:16:37;-251338.50;;;48.86;0.00
36600;BME280;35385;55.668;37.508;2022-11-21T00:17:38;-251460.09;;;48.85;0.00
36600;BME280;35385;55.668;37.508;2022-11-21T00:18:38;-251394.16;;;48.86;0.00
36600;BME280;35385;55.668;37.508;2022-11-21T00:19:39;-249353.09;;;49.17;100.00
36600;BME280;35385;55.668;37.508;2022-11-21T00:20:40;-250727.75;;;48.95;0.00
36600;BME280;35385;55.668;37.508;2022-11-21T00:21:41;-250071.75;;;49.06;100.00
36600;BME280;35385;55.668;37.508;2022-11-21T00:22:41;-249805.56;;;49.10;100.00
36600;BME280;35385;55.668;37.508;2022-11-21T00:23:43;-249720.41;;;49.11;100.00
36600;BME280;35385;55.668;37.508;2022-11-21T00:24:44;-248272.53;;;49.33;77.47
36600;BME280;35385;55.668;37.508;2022-11-21T00:25:44;-250631.59;;;48.98;0.00
36600;BME280;35385;55.668;37.508;2022-11-21T00:26:45;-250410.53;;;49.01;100.00
36600;BME280;35385;55.668;37.508;2022-11-21T00:27:45;-250486.16;;;49.00;100.00
36600;BME280;35385;55.668;37.508;2022-11-21T00:28:46;-249998.19;;;49.07;100.00
36600;BME280;35385;55.668;37.508;2022-11-21T00:29:46;-249750.91;;;49.10;100.00
36600;BME280;35385;55.668;37.508;2022-11-21T00:30:47;-248603.59;;;49.28;100.00
36600;BME280;35385;55.668;37.508;2022-11-21T00:31:47;-250626.97;;;48.98;0.00
36600;BME280;35385;55.668;37.508;2022-11-21T00:32:48;-250286.00;;;49.02;100.00
36600;BME280;35385;55.668;37.508;2022-11-21T00:33:48;-250462.84;;;49.00;100.00
36600;BME280;35385;55.668;37.508;2022-11-21T00:34:49;-250751.06;;;48.95;0.00
36600;BME280;35385;55.668;37.508;2022-11-21T00:35:49;-250582.63;;;48.98;0.00
36600;BME280;35385;55.668;37.508;2022-11-21T00:36:50;-250276.63;;;49.02;100.00
36600;BME280;35385;55.668;37.508;2022-11-21T00:37:50;-250305.66;;;49.02;100.00
36600;BME280;35385;55.668;37.508;2022-11-21T00:38:51;-249988.81;;;49.07;100.00
36600;BME280;35385;55.668;37.508;2022-11-21T00:39:51;-249269.03;;;49.17;100.00
36600;BME280;35385;55.668;37.508;2022-11-21T00:40:52;-247278.66;;;49.48;0.00
36600;BME280;35385;55.668;37.508;2022-11-21T00:41:52;-248831.91;;;49.24;100.00
36600;BME280;35385;55.668;37.508;2022-11-21T00:42:53;-248059.84;;;49.36;56.56
36600;BME280;35385;55.668;37.508;2022-11-21T00:43:53;-249114.34;;;49.20;100.00
36600;BME280;35385;55.668;37.508;2022-11-21T00:44:54;-249000.81;;;49.21;100.00
36600;BME280;35385;55.668;37.508;2022-11-21T00:45:54;-248988.84;;;49.22;100.00
36600;BME280;35385;55.668;37.508;2022-11-21T00:46:55;-249590.75;;;49.13;100.00
36600;BME280;35385;55.668;37.508;2022-11-21T00:47:55;-249431.69;;;49.15;100.00
36600;BME280;35385;55.668;37.508;2022-11-21T00:48:56;-248836.56;;;49.24;100.00
36600;BME280;35385;55.668;37.508;2022-11-21T00:49:56;-249067.63;;;49.20;100.00
36600;BME280;35385;55.668;37.508;2022-11-21T00:50:57;-248528.94;;;49.28;100.00
36600;BME280;35385;55.668;37.508;2022-11-21T00:51:59;-248440.44;;;49.30;94.36
36600;BME280;35385;55.668;37.508;2022-11-21T00:53:00;-248682.66;;;49.26;100.00
36600;BME280;35385;55.668;37.508;2022-11-21T00:54:00;-248772.91;;;49.25;100.00
36600;BME280;35385;55.668;37.508;2022-11-21T00:55:01;-248487.09;;;49.30;95.88
36600;BME280;35385;55.668;37.508;2022-11-21T00:56:01;-248477.63;;;49.30;93.23
36600;BME280;35385;55.668;37.508;2022-11-21T00:57:02;-249561.50;;;49.14;100.00
36600;BME280;35385;55.668;37.508;2022-11-21T00:58:02;-249920.03;;;49.09;100.00
36600;BME280;35385;55.668;37.508;2022-11-21T00:59:03;-250177.69;;;49.05;100.00
36600;BME280;35385;55.668;37.508;2022-11-21T01:00:04;-249870.91;;;49.10;100.00
36600;BME280;35385;55.668;37.508;2022-11-21T01:01:10;-243563.38;;;50.04;0.00
36600;BME280;35385;55.668;37.508;2022-11-21T01:02:11;-249088.28;;;49.21;100.00
36600;BME280;35385;55.668;37.508;2022-11-21T01:03:12;-249677.28;;;49.12;100.00
36600;BME280;35385;55.668;37.508;2022-11-21T01:04:13;-249677.28;;;49.12;100.00
36600;BME280;35385;55.668;37.508;2022-11-21T01:05:14;-249397.69;;;49.16;100.00
36600;BME280;35385;55.668;37.508;2022-11-21T01:06:15;-249788.25;;;49.10;100.00
36600;BME280;35385;55.668;37.508;2022-11-21T01:07:15;-249102.28;;;49.21;100.00
36600;BME280;35385;55.668;37.508;2022-11-21T01:08:16;-249788.25;;;49.10;100.00
36600;BME280;35385;55.668;37.508;2022-11-21T01:09:16;-250115.94;;;49.06;100.00
36600;BME280;35385;55.668;37.508;2022-11-21T01:10:17;-249660.78;;;49.13;100.00
36600;BME280;35385;55.668;37.508;2022-11-21T01:11:19;-250346.66;;;49.02;100.00
36600;BME280;35385;55.668;37.508;2022-11-21T01:12:20;-249797.63;;;49.10;100.00
36600;BME280;35385;55.668;37.508;2022-11-21T01:13:21;-248864.38;;;49.25;100.00
36600;BME280;35385;55.668;37.508;2022-11-21T01:14:22;-249556.81;;;49.14;100.00
36600;BME280;35385;55.668;37.508;2022-11-21T01:15:23;-248710.84;;;49.26;100.00
36600;BME280;35385;55.668;37.508;2022-11-21T01:16:25;-248382.81;;;49.31;91.96
36600;BME280;35385;55.668;37.508;2022-11-21T01:17:26;-249163.66;;;49.19;100.00
36600;BME280;35385;55.668;37.508;2022-11-21T01:18:26;-249060.25;;;49.21;100.00
36600;BME280;35385;55.668;37.508;2022-11-21T01:19:27;-248643.78;;;49.27;100.00
36600;BME280;35385;55.668;37.508;2022-11-21T01:20:27;-249047.47;;;49.21;100.00
36600;BME280;35385;55.668;37.508;2022-11-21T01:21:30;-247705.81;;;49.42;21.66
36600;BME280;35385;55.668;37.508;2022-11-21T01:22:31;-249442.28;;;49.16;100.00
36600;BME280;35385;55.668;37.508;2022-11-21T01:23:32;-247860.28;;;49.39;42.07
36600;BME280;35385;55.668;37.508;2022-11-21T01:24:33;-248002.66;;;49.37;51.75
36600;BME280;35385;55.668;37.508;2022-11-21T01:25:34;-245504.06;;;49.74;0.00
36600;BME280;35385;55.668;37.508;2022-11-21T01:26:35;-245600.66;;;49.73;0.00
36600;BME280;35385;55.668;37.508;2022-11-21T01:27:37;-247599.13;;;49.43;14.15
36600;BME280;35385;55.668;37.508;2022-11-21T01:28:38;-244501.94;;;49.90;0.00
36600;BME280;35385;55.668;37.508;2022-11-21T01:29:39;-247617.78;;;49.43;12.97
36600;BME280;35385;55.668;37.508;2022-11-21T01:30:39;-247394.34;;;49.46;0.00
36600;BME280;35385;55.668;37.508;2022-11-21T01:31:40;-247006.88;;;49.52;0.00
36600;BME280;35385;55.668;37.508;2022-11-21T01:32:40;-247378.69;;;49.47;0.00
36600;BME280;35385;55.668;37.508;2022-11-21T01:33:41;-247441.38;;;49.46;0.00
36600;BME280;35385;55.668;37.508;2022-11-21T01:34:42;-246087.66;;;49.66;0.00
36600;BME280;35385;55.668;37.508;2022-11-21T01:35:42;-247170.19;;;49.50;0.00
36600;BME280;35385;55.668;37.508;2022-11-21T01:36:43;-245382.09;;;49.77;0.00
36600;BME280;35385;55.668;37.508;2022-11-21T01:37:47;-247339.31;;;49.48;0.00
36600;BME280;35385;55.668;37.508;2022-11-21T01:38:50;-246096.41;;;49.67;0.00
36600;BME280;35385;55.668;37.508;2022-11-21T01:39:51;-248215.63;;;49.35;59.39
36600;BME280;35385;55.668;37.508;2022-11-21T01:40:52;-247963.22;;;49.39;38.08
36600;BME280;35385;55.668;37.508;2022-11-21T01:41:52;-248220.31;;;49.35;60.19
36600;BME280;35385;55.668;37.508;2022-11-21T01:42:57;-248971.84;;;49.24;100.00
36600;BME280;35385;55.668;37.508;2022-11-21T01:44:00;-249105.44;;;49.22;100.00
36600;BME280;35385;55.668;37.508;2022-11-21T01:45:01;-248628.75;;;49.29;97.23
36600;BME280;35385;55.668;37.508;2022-11-21T01:46:11;-248580.44;;;49.30;92.50
36600;BME280;35385;55.668;37.508;2022-11-21T01:47:12;-248827.38;;;49.26;100.00
36600;BME280;35385;55.668;37.508;2022-11-21T01:48:13;-249317.66;;;49.19;100.00
36600;BME280;35385;55.668;37.508;2022-11-21T01:50:20;-247998.75;;;49.40;33.54
36600;BME280;35385;55.668;37.508;2022-11-21T01:52:39;-248151.75;;;49.38;43.60
36600;BME280;35385;55.668;37.508;2022-11-21T01:53:42;-249474.44;;;49.17;100.00
36600;BME280;35385;55.668;37.508;2022-11-21T01:55:46;-248314.53;;;49.33;72.21
36600;BME280;35385;55.668;37.508;2022-11-21T01:56:57;-247869.56;;;49.40;28.26
36600;BME280;35385;55.668;37.508;2022-11-21T01:58:00;-244143.13;;;49.96;0.00
36600;BME280;35385;55.668;37.508;2022-11-21T01:59:02;-247381.31;;;49.48;0.00
36600;BME280;35385;55.668;37.508;2022-11-21T02:01:13;-244383.88;;;49.92;0.00
36600;BME280;35385;55.668;37.508;2022-11-21T02:02:16;-246293.53;;;49.63;0.00
36600;BME280;35385;55.668;37.508;2022-11-21T02:03:23;-244272.50;;;49.93;0.00
36600;BME280;35385;55.668;37.508;2022-11-21T02:04:27;-246992.88;;;49.53;0.00
36600;BME280;35385;55.668;37.508;2022-11-21T02:05:32;-247488.03;;;49.46;0.00
36600;BME280;35385;55.668;37.508;2022-11-21T02:06:34;-243647.34;;;50.03;0.00
36600;BME280;35385;55.668;37.508;2022-11-21T02:07:39;-247246.94;;;49.49;0.00
36600;BME280;35385;55.668;37.508;2022-11-21T02:08:43;-245452.72;;;49.76;0.00
36600;BME280;35385;55.668;37.508;2022-11-21T02:09:46;-247102.38;;;49.51;0.00
36600;BME280;35385;55.668;37.508;2022-11-21T02:11:10;-244789.41;;;49.85;0.00
36600;BME280;35385;55.668;37.508;2022-11-21T02:12:22;-244812.72;;;49.85;0.00
36600;BME280;35385;55.668;37.508;2022-11-21T02:13:44;-246634.22;;;49.58;0.00
36600;BME280;35385;55.668;37.508;2022-11-21T02:14:45;-244442.94;;;49.91;0.00
36600;BME280;35385;55.668;37.508;2022-11-21T02:15:46;-246452.03;;;49.61;0.00
36600;BME280;35385;55.668;37.508;2022-11-21T02:16:47;-245245.84;;;49.79;0.00
36600;BME280;35385;55.668;37.508;2022-11-21T02:17:47;-245879.13;;;49.70;0.00
36600;BME280;35385;55.668;37.508;2022-11-21T02:18:48;-247381.31;;;49.48;0.00
36600;BME280;35385;55.668;37.508;2022-11-21T02:20:00;-247525.38;;;49.46;0.00
36600;BME280;35385;55.668;37.508;2022-11-21T02:21:16;-247516.00;;;49.46;0.00
36600;BME280;35385;55.668;37.508;2022-11-21T02:22:27;-247177.06;;;49.51;0.00
36600;BME280;35385;55.668;37.508;2022-11-21T02:24:04;-247698.91;;;49.44;8.12
36600;BME280;35385;55.668;37.508;2022-11-21T02:25:20;-245717.34;;;49.73;0.00
36600;BME280;35385;55.668;37.508;2022-11-21T02:26:21;-248019.25;;;49.39;38.55
36600;BME280;35385;55.668;37.508;2022-11-21T02:27:21;-246932.50;;;49.55;0.00
36600;BME280;35385;55.668;37.508;2022-11-21T02:28:23;-245649.41;;;49.74;0.00
36600;BME280;35385;55.668;37.508;2022-11-21T02:29:24;-247340.66;;;49.48;0.00
36600;BME280;35385;55.668;37.508;2022-11-21T02:30:26;-246895.19;;;49.55;0.00
36600;BME280;35385;55.668;37.508;2022-11-21T02:31:27;-246967.38;;;49.54;0.00
36600;BME280;35385;55.668;37.508;2022-11-21T02:32:37;-245664.03;;;49.74;0.00
36600;BME280;35385;55.668;37.508;2022-11-21T02:33:37;-246190.34;;;49.66;0.00
36600;BME280;35385;55.668;37.508;2022-11-21T02:34:38;-247643.91;;;49.44;4.54
36600;BME280;35385;55.668;37.508;2022-11-21T02:35:39;-248157.91;;;49.36;54.50
36600;BME280;35385;55.668;37.508;2022-11-21T02:36:42;-248298.81;;;49.34;64.69
36600;BME280;35385;55.668;37.508;2022-11-21T02:37:53;-248252.94;;;49.35;59.51
36600;BME280;35385;55.668;37.508;2022-11-21T02:38:56;-248033.25;;;49.39;39.40
36600;BME280;35385;55.668;37.508;2022-11-21T02:40:00;-247689.59;;;49.44;10.01
36600;BME280;35385;55.668;37.508;2022-11-21T02:41:12;-247128.25;;;49.52;0.00
36600;BME280;35385;55.668;37.508;2022-11-21T02:42:22;-245038.66;;;49.83;0.00
36600;BME280;35385;55.668;37.508;2022-11-21T02:43:49;-246990.69;;;49.54;0.00
36600;BME280;35385;55.668;37.508;2022-11-21T02:45:50;-246594.13;;;49.59;0.00
36600;BME280;35385;55.668;37.508;2022-11-21T02:46:51;-247239.84;;;49.50;0.00
36600;BME280;35385;55.668;37.508;2022-11-21T02:47:54;-247167.69;;;49.51;0.00
36600;BME280;35385;55.668;37.508;2022-11-21T02:48:55;-246454.38;;;49.62;0.00
36600;BME280;35385;55.668;37.508;2022-11-21T02:50:13;-246272.44;;;49.64;0.00
36600;BME280;35385;55.668;37.508;2022-11-21T02:51:14;-245841.75;;;49.70;0.00
36600;BME280;35385;55.668;37.508;2022-11-21T02:52:15;-245539.44;;;49.75;0.00
36600;BME280;35385;55.668;37.508;2022-11-21T02:53:17;-244537.16;;;49.90;0.00
36600;BME280;35385;55.668;37.508;2022-11-21T02:54:17;-246171.63;;;49.66;0.00
36600;BME280;35385;55.668;37.508;2022-11-21T02:55:18;-246631.44;;;49.59;0.00
36600;BME280;35385;55.668;37.508;2022-11-21T02:56:18;-245241.03;;;49.81;0.00
36600;BME280;35385;55.668;37.508;2022-11-21T02:57:19;-247328.00;;;49.49;0.00
36600;BME280;35385;55.668;37.508;2022-11-21T02:58:19;-247272.47;;;49.50;0.00
36600;BME280;35385;55.668;37.508;2022-11-21T02:59:20;-247378.03;;;49.48;0.00
36600;BME280;35385;55.668;37.508;2022-11-21T03:00:21;-247708.28;;;49.44;7.61
36600;BME280;35385;55.668;37.508;2022-11-21T03:01:21;-248366.91;;;49.34;68.16
36600;BME280;35385;55.668;37.508;2022-11-21T03:02:22;-248466.88;;;49.33;76.88
36600;BME280;35385;55.668;37.508;2022-11-21T03:03:22;-248608.28;;;49.30;89.69
36600;BME280;35385;55.668;37.508;2022-11-21T03:04:23;-248636.44;;;49.30;92.30
36600;BME280;35385;55.668;37.508;2022-11-21T03:05:23;-248627.13;;;49.30;92.65
36600;BME280;35385;55.668;37.508;2022-11-21T03:06:24;-248326.84;;;49.34;66.98
36600;BME280;35385;55.668;37.508;2022-11-21T03:07:24;-248232.56;;;49.36;55.48
36600;BME280;35385;55.668;37.508;2022-11-21T03:08:25;-248939.50;;;49.26;100.00
36600;BME280;35385;55.668;37.508;2022-11-21T03:09:25;-249217.53;;;49.22;100.00
36600;BME280;35385;55.668;37.508;2022-11-21T03:10:26;-249279.63;;;49.21;100.00
36600;BME280;35385;55.668;37.508;2022-11-21T03:11:26;-249647.66;;;49.16;100.00
36600;BME280;35385;55.668;37.508;2022-11-21T03:12:27;-249955.13;;;49.11;100.00
36600;BME280;35385;55.668;37.508;2022-11-21T03:13:27;-247693.38;;;49.46;0.00
36600;BME280;35385;55.668;37.508;2022-11-21T03:14:28;-250021.63;;;49.10;100.00
36600;BME280;35385;55.668;37.508;2022-11-21T03:15:32;-249945.81;;;49.11;100.00
36600;BME280;35385;55.668;37.508;2022-11-21T03:16:33;-249712.97;;;49.14;100.00
36600;BME280;35385;55.668;37.508;2022-11-21T03:17:34;-248036.09;;;49.40;36.96
36600;BME280;35385;55.668;37.508;2022-11-21T03:18:34;-247822.53;;;49.42;21.24
36600;BME280;35385;55.668;37.508;2022-11-21T03:19:35;-247930.25;;;49.40;31.90
36600;BME280;35385;55.668;37.508;2022-11-21T03:20:35;-245890.56;;;49.71;0.00
36600;BME280;35385;55.668;37.508;2022-11-21T03:21:36;-248511.63;;;49.32;81.87
36600;BME280;35385;55.668;37.508;2022-11-21T03:22:36;-248285.66;;;49.35;62.48
36600;BME280;35385;55.668;37.508;2022-11-21T03:23:37;-248251.22;;;49.36;57.16
36600;BME280;35385;55.668;37.508;2022-11-21T03:24:37;-246042.88;;;49.69;0.00
36600;BME280;35385;55.668;37.508;2022-11-21T03:25:38;-246932.50;;;49.55;0.00
36600;BME280;35385;55.668;37.508;2022-11-21T03:26:38;-246413.13;;;49.62;0.00
36600;BME280;35385;55.668;37.508;2022-11-21T03:27:39;-245803.81;;;49.71;0.00
36600;BME280;35385;55.668;37.508;2022-11-21T03:28:40;-244520.97;;;49.89;0.00
36600;BME280;35385;55.668;37.508;2022-11-21T03:29:42;-242072.44;;;50.25;0.00
36600;BME280;35385;55.668;37.508;2022-11-21T03:30:42;-243873.59;;;49.99;0.00
36600;BME280;35385;55.668;37.508;2022-11-21T03:31:43;-244520.97;;;49.89;0.00
36600;BME280;35385;55.668;37.508;2022-11-21T03:32:43;-244766.09;;;49.85;0.00
36600;BME280;35385;55.668;37.508;2022-11-21T03:33:44;-244905.13;;;49.84;0.00
36600;BME280;35385;55.668;37.508;2022-11-21T03:34:44;-244178.69;;;49.94;0.00
36600;BME280;35385;55.668;37.508;2022-11-21T03:35:46;-244137.81;;;49.95;0.00
36600;BME280;35385;55.668;37.508;2022-11-21T03:36:47;-244511.63;;;49.89;0.00
36600;BME280;35385;55.668;37.508;2022-11-21T03:37:47;-244622.88;;;49.87;0.00
36600;BME280;35385;55.668;37.508;2022-11-21T03:38:48;-244806.31;;;49.85;0.00
36600;BME280;35385;55.668;37.508;2022-11-21T03:39:48;-245060.38;;;49.81;0.00
36600;BME280;35385;55.668;37.508;2022-11-21T03:40:49;-245055.69;;;49.81;0.00
36600;BME280;35385;55.668;37.508;2022-11-21T03:41:50;-243695.91;;;50.01;0.00
36600;BME280;35385;55.668;37.508;2022-11-21T03:42:50;-244760.13;;;49.85;0.00
36600;BME280;35385;55.668;37.508;2022-11-21T03:43:51;-244701.28;;;49.86;0.00
36600;BME280;35385;55.668;37.508;2022-11-21T03:44:51;-244966.81;;;49.82;0.00
36600;BME280;35385;55.668;37.508;2022-11-21T03:45:52;-244622.38;;;49.87;0.00
36600;BME280;35385;55.668;37.508;2022-11-21T03:46:52;-244387.81;;;49.90;0.00
36600;BME280;35385;55.668;37.508;2022-11-21T03:47:52;-243956.69;;;49.97;0.00
36600;BME280;35385;55.668;37.508;2022-11-21T03:48:53;-241630.00;;;50.31;100.00
36600;BME280;35385;55.668;37.508;2022-11-21T03:49:53;-243330.63;;;50.07;0.00
36600;BME280;35385;55.668;37.508;2022-11-21T03:50:54;-245302.66;;;49.78;0.00
36600;BME280;35385;55.668;37.508;2022-11-21T03:51:54;-243338.94;;;50.07;0.00
36600;BME280;35385;55.668;37.508;2022-11-21T03:52:55;-245220.59;;;49.78;0.00
36600;BME280;35385;55.668;37.508;2022-11-21T03:53:55;-246375.03;;;49.62;0.00
36600;BME280;35385;55.668;37.508;2022-11-21T03:54:56;-246930.00;;;49.54;0.00
36600;BME280;35385;55.668;37.508;2022-11-21T03:55:56;-246701.84;;;49.57;0.00
36600;BME280;35385;55.668;37.508;2022-11-21T03:56:57;-243103.44;;;50.11;0.00
36600;BME280;35385;55.668;37.508;2022-11-21T03:57:57;-245813.75;;;49.70;0.00
36600;BME280;35385;55.668;37.508;2022-11-21T03:58:58;-246014.59;;;49.67;0.00
36600;BME280;35385;55.668;37.508;2022-11-21T03:59:58;-244747.16;;;49.86;0.00
36600;BME280;35385;55.668;37.508;2022-11-21T04:00:59;-246101.66;;;49.66;0.00
36600;BME280;35385;55.668;37.508;2022-11-21T04:01:59;-245619.31;;;49.73;0.00
36600;BME280;35385;55.668;37.508;2022-11-21T04:03:00;-244609.25;;;49.88;0.00
36600;BME280;35385;55.668;37.508;2022-11-21T04:04:00;-244900.47;;;49.84;0.00
36600;BME280;35385;55.668;37.508;2022-11-21T04:05:01;-244775.44;;;49.85;0.00
36600;BME280;35385;55.668;37.508;2022-11-21T04:06:01;-244806.81;;;49.85;0.00
36600;BME280;35385;55.668;37.508;2022-11-21T04:07:02;-244410.28;;;49.91;0.00
36600;BME280;35385;55.668;37.508;2022-11-21T04:08:02;-244709.81;;;49.86;0.00
36600;BME280;35385;55.668;37.508;2022-11-21T04:09:03;-244719.09;;;49.86;0.00
36600;BME280;35385;55.668;37.508;2022-11-21T04:10:04;-244824.94;;;49.85;0.00
36600;BME280;35385;55.668;37.508;2022-11-21T04:11:05;-241197.09;;;50.38;100.00
36600;BME280;35385;55.668;37.508;2022-11-21T04:12:06;-244091.59;;;49.95;0.00
36600;BME280;35385;55.668;37.508;2022-11-21T04:13:06;-243175.78;;;50.08;0.00
36600;BME280;35385;55.668;37.508;2022-11-21T04:14:07;-243599.31;;;50.02;0.00
36600;BME280;35385;55.668;37.508;2022-11-21T04:15:07;-243909.47;;;49.98;0.00
36600;BME280;35385;55.668;37.508;2022-11-21T04:16:08;-244002.22;;;49.96;0.00
36600;BME280;35385;55.668;37.508;2022-11-21T04:17:09;-244247.97;;;49.93;0.00
36600;BME280;35385;55.668;37.508;2022-11-21T04:18:10;-244197.84;;;49.93;0.00
36600;BME280;35385;55.668;37.508;2022-11-21T04:19:11;-244396.25;;;49.91;0.00
36600;BME280;35385;55.668;37.508;2022-11-21T04:20:11;-243589.97;;;50.02;0.00
36600;BME280;35385;55.668;37.508;2022-11-21T04:21:12;-243707.16;;;50.00;0.00
36600;BME280;35385;55.668;37.508;2022-11-21T04:22:12;-243416.69;;;50.05;0.00
36600;BME280;35385;55.668;37.508;2022-11-21T04:23:13;-243628.28;;;50.02;0.00
36600;BME280;35385;55.668;37.508;2022-11-21T04:24:14;-243479.38;;;50.04;0.00
36600;BME280;35385;55.668;37.508;2022-11-21T04:25:14;-243144.13;;;50.09;0.00
36600;BME280;35385;55.668;37.508;2022-11-21T04:26:15;-243233.91;;;50.07;0.00
36600;BME280;35385;55.668;37.508;2022-11-21T04:27:16;-243469.03;;;50.04;0.00
36600;BME280;35385;55.668;37.508;2022-11-21T04:28:16;-240979.34;;;50.41;100.00
36600;BME280;35385;55.668;37.508;2022-11-21T04:29:17;-242886.44;;;50.13;0.00
36600;BME280;35385;55.668;37.508;2022-11-21T04:30:17;-242956.63;;;50.12;0.00
36600;BME280;35385;55.668;37.508;2022-11-21T04:31:18;-243083.84;;;50.10;0.00
36600;BME280;35385;55.668;37.508;2022-11-21T04:32:18;-244294.66;;;49.93;0.00
36600;BME280;35385;55.668;37.508;2022-11-21T04:33:19;-244314.22;;;49.92;0.00
36600;BME280;35385;55.668;37.508;2022-11-21T04:34:19;-244462.47;;;49.90;0.00
36600;BME280;35385;55.668;37.508;2022-11-21T04:35:21;-244048.91;;;49.96;0.00
36600;BME280;35385;55.668;37.508;2022-11-21T04:36:21;-243921.22;;;49.98;0.00
36600;BME280;35385;55.668;37.508;2022-11-21T04:37:22;-243772.50;;;50.00;0.00
36600;BME280;35385;55.668;37.508;2022-11-21T04:38:22;-243942.13;;;49.98;0.00
36600;BME280;35385;55.668;37.508;2022-11-21T04:39:23;-243035.97;;;50.12;0.00
36600;BME280;35385;55.668;37.508;2022-11-21T04:40:23;-241983.44;;;50.27;100.00
36600;BME280;35385;55.668;37.508;2022-11-21T04:41:24;-242934.22;;;50.12;0.00
36600;BME280;35385;55.668;37.508;2022-11-21T04:42:24;-241424.03;;;50.35;100.00
36600;BME280;35385;55.668;37.508;2022-11-21T04:43:25;-242816.69;;;50.14;0.00
36600;BME280;35385;55.668;37.508;2022-11-21T04:44:25;-243213.13;;;50.08;0.00
36600;BME280;35385;55.668;37.508;2022-11-21T04:45:27;-240818.75;;;50.43;100.00
36600;BME280;35385;55.668;37.508;2022-11-21T04:46:28;-243271.22;;;50.07;0.00
36600;BME280;35385;55.668;37.508;2022-11-21T04:47:28;-243375.97;;;50.06;0.00
36600;BME280;35385;55.668;37.508;2022-11-21T04:48:29;-243240.84;;;50.08;0.00
36600;BME280;35385;55.668;37.508;2022-11-21T04:49:29;-243577.31;;;50.03;0.00
36600;BME280;35385;55.668;37.508;2022-11-21T04:50:30;-244299.31;;;49.93;0.00
36600;BME280;35385;55.668;37.508;2022-11-21T04:51:30;-244926.38;;;49.84;0.00
36600;BME280;35385;55.668;37.508;2022-11-21T04:52:31;-241769.25;;;50.31;100.00
36600;BME280;35385;55.668;37.508;2022-11-21T04:53:31;-245135.00;;;49.81;0.00
36600;BME280;35385;55.668;37.508;2022-11-21T04:54:32;-243108.09;;;50.11;0.00
36600;BME280;35385;55.668;37.508;2022-11-21T04:55:32;-242910.94;;;50.14;0.00
36600;BME280;35385;55.668;37.508;2022-11-21T04:56:33;-244442.94;;;49.91;0.00
36600;BME280;35385;55.668;37.508;2022-11-21T04:57:34;-242059.28;;;50.26;0.00
36600;BME280;35385;55.668;37.508;2022-11-21T04:58:34;-243231.78;;;50.08;0.00
36600;BME280;35385;55.668;37.508;2022-11-21T04:59:35;-242400.44;;;50.20;0.00
36600;BME280;35385;55.668;37.508;2022-11-21T05:00:35;-241903.59;;;50.28;100.00
36600;BME280;35385;55.668;37.508;2022-11-21T05:01:36;-242326.69;;;50.21;0.00
36600;BME280;35385;55.668;37.508;2022-11-21T05:02:37;-241325.25;;;50.36;100.00
36600;BME280;35385;55.668;37.508;2022-11-21T05:03:38;-243540.03;;;50.04;0.00
36600;BME280;35385;55.668;37.508;2022-11-21T05:04:38;-243698.25;;;50.02;0.00
36600;BME280;35385;55.668;37.508;2022-11-21T05:05:39;-244147.56;;;49.95;0.00
36600;BME280;35385;55.668;37.508;2022-11-21T05:06:40;-243250.47;;;50.08;0.00
36600;BME280;35385;55.668;37.508;2022-11-21T05:07:40;-242672.53;;;50.17;0.00
36600;BME280;35385;55.668;37.508;2022-11-21T05:08:41;-244175.16;;;49.95;0.00
36600;BME280;35385;55.668;37.508;2022-11-21T05:09:41;-242307.78;;;50.22;0.00
36600;BME280;35385;55.668;37.508;2022-11-21T05:10:42;-241490.00;;;50.34;100.00
36600;BME280;35385;55.668;37.508;2022-11-21T05:12:02;-243645.94;;;50.02;0.00
36600;BME280;35385;55.668;37.508;2022-11-21T05:13:21;-243572.66;;;50.03;0.00
36600;BME280;35385;55.668;37.508;2022-11-21T05:14:21;-243949.19;;;49.98;0.00
36600;BME280;35385;55.668;37.508;2022-11-21T05:15:25;-244156.91;;;49.95;0.00
36600;BME280;35385;55.668;37.508;2022-11-21T05:16:25;-244105.81;;;49.96;0.00
36600;BME280;35385;55.668;37.508;2022-11-21T05:17:27;-244539.25;;;49.90;0.00
36600;BME280;35385;55.668;37.508;2022-11-21T05:18:28;-244646.59;;;49.88;0.00
36600;BME280;35385;55.668;37.508;2022-11-21T05:19:28;-245107.00;;;49.81;0.00
36600;BME280;35385;55.668;37.508;2022-11-21T05:20:29;-245466.09;;;49.77;0.00
36600;BME280;35385;55.668;37.508;2022-11-21T05:21:29;-246267.47;;;49.65;0.00